sensor_id;sensor_type;location;lat;lon;timestamp;P1;durP1;ratioP1;P2;durP2;ratioP2
7013;SDS011;3547;50.774;12.918;2022-10-26T00:01:11;5.73;;;1.57;;
7013;SDS011;3547;50.774;12.918;2022-10-26T00:03:39;1.80;;;1.50;;
7013;SDS011;3547;50.774;12.918;2022-10-26T00:06:16;1.53;;;1.43;;
7013;SDS011;3547;50.774;12.918;2022-10-26T00:08:44;2.63;;;1.40;;
7013;SDS011;3547;50.774;12.918;2022-10-26T00:11:11;1.80;;;1.53;;
7013;SDS011;3547;50.774;12.918;2022-10-26T00:13:38;2.33;;;1.50;;
7013;SDS011;3547;50.774;12.918;2022-10-26T00:16:09;2.43;;;1.50;;
7013;SDS011;3547;50.774;12.918;2022-10-26T00:18:37;1.77;;;1.53;;
7013;SDS011;3547;50.774;12.918;2022-10-26T00:21:04;4.33;;;1.50;;
7013;SDS011;3547;50.774;12.918;2022-10-26T00:23:31;1.67;;;1.57;;
7013;SDS011;3547;50.774;12.918;2022-10-26T00:25:58;3.80;;;1.40;;
7013;SDS011;3547;50.774;12.918;2022-10-26T00:28:24;1.57;;;1.33;;
7013;SDS011;3547;50.774;12.918;2022-10-26T00:30:50;3.93;;;1.40;;
7013;SDS011;3547;50.774;12.918;2022-10-26T00:33:17;3.00;;;1.20;;
7013;SDS011;3547;50.774;12.918;2022-10-26T00:35:46;2.50;;;1.30;;
7013;SDS011;3547;50.774;12.918;2022-10-26T00:41:36;2.20;;;1.30;;
7013;SDS011;3547;50.774;12.918;2022-10-26T00:44:40;2.83;;;1.07;;
7013;SDS011;3547;50.774;12.918;2022-10-26T00:47:08;2.37;;;1.60;;
7013;SDS011;3547;50.774;12.918;2022-10-26T00:49:36;5.40;;;2.33;;
7013;SDS011;3547;50.774;12.918;2022-10-26T00:52:03;1.87;;;1.50;;
7013;SDS011;3547;50.774;12.918;2022-10-26T00:54:31;1.20;;;1.00;;
7013;SDS011;3547;50.774;12.918;2022-10-26T00:56:58;1.40;;;1.30;;
7013;SDS011;3547;50.774;12.918;2022-10-26T00:59:24;2.97;;;2.00;;
7013;SDS011;3547;50.774;12.918;2022-10-26T01:01:51;2.57;;;1.60;;
7013;SDS011;3547;50.774;12.918;2022-10-26T01:04:18;3.60;;;1.70;;
7013;SDS011;3547;50.774;12.918;2022-10-26T01:06:45;2.00;;;1.87;;
7013;SDS011;3547;50.774;12.918;2022-10-26T01:09:13;2.60;;;1.67;;
7013;SDS011;3547;50.774;12.918;2022-10-26T01:11:44;1.60;;;1.23;;
7013;SDS011;3547;50.774;12.918;2022-10-26T01:14:11;1.20;;;1.10;;
7013;SDS011;3547;50.774;12.918;2022-10-26T01:16:47;1.30;;;1.20;;
7013;SDS011;3547;50.774;12.918;2022-10-26T01:22:13;3.57;;;2.37;;
7013;SDS011;3547;50.774;12.918;2022-10-26T01:27:37;2.40;;;1.20;;
7013;SDS011;3547;50.774;12.918;2022-10-26T01:32:50;1.70;;;1.50;;
7013;SDS011;3547;50.774;12.918;2022-10-26T01:35:28;2.13;;;1.40;;
7013;SDS011;3547;50.774;12.918;2022-10-26T01:38:10;5.80;;;1.40;;
7013;SDS011;3547;50.774;12.918;2022-10-26T01:40:54;9.43;;;1.70;;
7013;SDS011;3547;50.774;12.918;2022-10-26T01:43:27;7.33;;;2.90;;
7013;SDS011;3547;50.774;12.918;2022-10-26T01:46:00;6.10;;;3.27;;
7013;SDS011;3547;50.774;12.918;2022-10-26T01:48:29;4.00;;;1.77;;
7013;SDS011;3547;50.774;12.918;2022-10-26T01:50:59;3.60;;;2.13;;
7013;SDS011;3547;50.774;12.918;2022-10-26T01:53:29;6.53;;;2.87;;
7013;SDS011;3547;50.774;12.918;2022-10-26T01:55:55;2.97;;;1.67;;
7013;SDS011;3547;50.774;12.918;2022-10-26T02:13:27;1.40;;;1.30;;
7013;SDS011;3547;50.774;12.918;2022-10-26T02:19:25;2.00;;;1.57;;
7013;SDS011;3547;50.774;12.918;2022-10-26T02:22:03;5.90;;;1.63;;
7013;SDS011;3547;50.774;12.918;2022-10-26T02:24:38;1.80;;;1.33;;
7013;SDS011;3547;50.774;12.918;2022-10-26T02:27:11;4.60;;;1.70;;
7013;SDS011;3547;50.774;12.918;2022-10-26T02:29:47;2.63;;;1.13;;
7013;SDS011;3547;50.774;12.918;2022-10-26T02:32:53;3.43;;;1.30;;
7013;SDS011;3547;50.774;12.918;2022-10-26T02:35:24;1.90;;;1.40;;
7013;SDS011;3547;50.774;12.918;2022-10-26T02:37:54;1.77;;;1.67;;
7013;SDS011;3547;50.774;12.918;2022-10-26T02:40:27;4.20;;;1.50;;
7013;SDS011;3547;50.774;12.918;2022-10-26T02:42:54;1.70;;;1.20;;
7013;SDS011;3547;50.774;12.918;2022-10-26T02:45:30;3.43;;;1.70;;
7013;SDS011;3547;50.774;12.918;2022-10-26T02:48:02;2.60;;;1.30;;
7013;SDS011;3547;50.774;12.918;2022-10-26T02:54:00;9.67;;;1.57;;
7013;SDS011;3547;50.774;12.918;2022-10-26T02:56:58;1.40;;;1.20;;
7013;SDS011;3547;50.774;12.918;2022-10-26T03:03:26;1.20;;;1.10;;
7013;SDS011;3547;50.774;12.918;2022-10-26T03:05:52;2.87;;;1.27;;
7013;SDS011;3547;50.774;12.918;2022-10-26T03:08:19;3.50;;;1.43;;
7013;SDS011;3547;50.774;12.918;2022-10-26T03:10:48;2.37;;;1.10;;
7013;SDS011;3547;50.774;12.918;2022-10-26T03:19:59;2.40;;;1.27;;
7013;SDS011;3547;50.774;12.918;2022-10-26T03:22:26;3.93;;;1.40;;
7013;SDS011;3547;50.774;12.918;2022-10-26T03:24:54;4.03;;;1.27;;
7013;SDS011;3547;50.774;12.918;2022-10-26T03:27:25;1.70;;;1.60;;
7013;SDS011;3547;50.774;12.918;2022-10-26T03:30:05;2.30;;;1.30;;
7013;SDS011;3547;50.774;12.918;2022-10-26T03:32:32;1.93;;;1.37;;
7013;SDS011;3547;50.774;12.918;2022-10-26T03:35:01;2.63;;;1.40;;
7013;SDS011;3547;50.774;12.918;2022-10-26T03:37:30;2.50;;;1.20;;
7013;SDS011;3547;50.774;12.918;2022-10-26T03:39:57;1.30;;;1.20;;
7013;SDS011;3547;50.774;12.918;2022-10-26T03:42:24;3.30;;;1.23;;
7013;SDS011;3547;50.774;12.918;2022-10-26T03:44:52;1.87;;;1.60;;
7013;SDS011;3547;50.774;12.918;2022-10-26T03:47:22;2.17;;;1.47;;
7013;SDS011;3547;50.774;12.918;2022-10-26T03:49:52;2.10;;;1.00;;
7013;SDS011;3547;50.774;12.918;2022-10-26T03:52:19;1.50;;;1.40;;
7013;SDS011;3547;50.774;12.918;2022-10-26T03:54:45;3.10;;;1.30;;
7013;SDS011;3547;50.774;12.918;2022-10-26T03:57:11;2.23;;;1.30;;
7013;SDS011;3547;50.774;12.918;2022-10-26T03:59:38;1.67;;;1.20;;
7013;SDS011;3547;50.774;12.918;2022-10-26T04:02:04;2.40;;;1.10;;
7013;SDS011;3547;50.774;12.918;2022-10-26T04:04:31;1.40;;;1.30;;
7013;SDS011;3547;50.774;12.918;2022-10-26T04:06:57;1.20;;;1.10;;
7013;SDS011;3547;50.774;12.918;2022-10-26T04:09:23;2.37;;;1.40;;
7013;SDS011;3547;50.774;12.918;2022-10-26T04:11:50;1.77;;;1.50;;
7013;SDS011;3547;50.774;12.918;2022-10-26T04:14:16;1.43;;;1.33;;
7013;SDS011;3547;50.774;12.918;2022-10-26T04:16:42;1.60;;;1.33;;
7013;SDS011;3547;50.774;12.918;2022-10-26T04:19:08;2.00;;;1.37;;
7013;SDS011;3547;50.774;12.918;2022-10-26T04:21:35;2.37;;;1.50;;
7013;SDS011;3547;50.774;12.918;2022-10-26T04:24:01;4.83;;;1.40;;
7013;SDS011;3547;50.774;12.918;2022-10-26T04:26:27;2.53;;;1.43;;
7013;SDS011;3547;50.774;12.918;2022-10-26T04:28:54;1.50;;;1.00;;
7013;SDS011;3547;50.774;12.918;2022-10-26T04:31:20;1.70;;;1.60;;
7013;SDS011;3547;50.774;12.918;2022-10-26T04:33:46;2.20;;;1.80;;
7013;SDS011;3547;50.774;12.918;2022-10-26T05:07:23;1.20;;;1.03;;
7013;SDS011;3547;50.774;12.918;2022-10-26T05:09:50;1.03;;;0.93;;
7013;SDS011;3547;50.774;12.918;2022-10-26T05:12:16;2.03;;;1.10;;
7013;SDS011;3547;50.774;12.918;2022-10-26T05:14:43;2.40;;;1.30;;
7013;SDS011;3547;50.774;12.918;2022-10-26T05:17:13;3.83;;;1.27;;
7013;SDS011;3547;50.774;12.918;2022-10-26T05:19:54;2.20;;;1.40;;
7013;SDS011;3547;50.774;12.918;2022-10-26T05:23:05;3.30;;;1.90;;
7013;SDS011;3547;50.774;12.918;2022-10-26T05:26:25;2.73;;;1.20;;
7013;SDS011;3547;50.774;12.918;2022-10-26T06:11:15;1.90;;;1.80;;
7013;SDS011;3547;50.774;12.918;2022-10-26T06:17:00;2.43;;;1.40;;
7013;SDS011;3547;50.774;12.918;2022-10-26T06:28:34;9.50;;;2.23;;
7013;SDS011;3547;50.774;12.918;2022-10-26T06:31:15;3.17;;;1.50;;
7013;SDS011;3547;50.774;12.918;2022-10-26T06:33:42;2.17;;;1.17;;
7013;SDS011;3547;50.774;12.918;2022-10-26T06:38:40;4.03;;;1.70;;
7013;SDS011;3547;50.774;12.918;2022-10-26T06:41:09;2.97;;;1.90;;
7013;SDS011;3547;50.774;12.918;2022-10-26T06:43:40;1.80;;;1.60;;
7013;SDS011;3547;50.774;12.918;2022-10-26T06:49:15;3.53;;;1.20;;
7013;SDS011;3547;50.774;12.918;2022-10-26T06:51:57;1.33;;;1.20;;
7013;SDS011;3547;50.774;12.918;2022-10-26T06:54:44;1.40;;;1.30;;
7013;SDS011;3547;50.774;12.918;2022-10-26T06:57:18;3.40;;;1.17;;
7013;SDS011;3547;50.774;12.918;2022-10-26T06:59:52;2.93;;;1.33;;
7013;SDS011;3547;50.774;12.918;2022-10-26T07:02:23;2.90;;;1.33;;
7013;SDS011;3547;50.774;12.918;2022-10-26T07:04:59;4.40;;;1.20;;
7013;SDS011;3547;50.774;12.918;2022-10-26T07:25:03;1.90;;;1.20;;
7013;SDS011;3547;50.774;12.918;2022-10-26T07:27:33;1.80;;;1.40;;
7013;SDS011;3547;50.774;12.918;2022-10-26T07:30:39;1.87;;;1.30;;
7013;SDS011;3547;50.774;12.918;2022-10-26T07:33:22;3.97;;;1.50;;
7013;SDS011;3547;50.774;12.918;2022-10-26T07:35:48;6.50;;;1.53;;
7013;SDS011;3547;50.774;12.918;2022-10-26T07:38:21;4.53;;;1.47;;
7013;SDS011;3547;50.774;12.918;2022-10-26T07:41:19;3.33;;;1.70;;
7013;SDS011;3547;50.774;12.918;2022-10-26T07:47:34;10.33;;;1.27;;
7013;SDS011;3547;50.774;12.918;2022-10-26T07:50:00;1.53;;;1.20;;
7013;SDS011;3547;50.774;12.918;2022-10-26T07:52:28;2.60;;;1.37;;
7013;SDS011;3547;50.774;12.918;2022-10-26T07:54:57;1.27;;;1.13;;
7013;SDS011;3547;50.774;12.918;2022-10-26T07:57:23;3.03;;;0.80;;
7013;SDS011;3547;50.774;12.918;2022-10-26T07:59:49;1.63;;;1.37;;
7013;SDS011;3547;50.774;12.918;2022-10-26T08:02:15;1.57;;;0.83;;
7013;SDS011;3547;50.774;12.918;2022-10-26T08:04:42;2.60;;;0.80;;
7013;SDS011;3547;50.774;12.918;2022-10-26T08:07:09;3.30;;;0.87;;
7013;SDS011;3547;50.774;12.918;2022-10-26T08:09:39;1.00;;;0.80;;
7013;SDS011;3547;50.774;12.918;2022-10-26T08:12:06;2.53;;;0.97;;
7013;SDS011;3547;50.774;12.918;2022-10-26T08:14:34;2.30;;;0.80;;
7013;SDS011;3547;50.774;12.918;2022-10-26T08:17:08;1.57;;;1.00;;
7013;SDS011;3547;50.774;12.918;2022-10-26T08:19:35;3.27;;;0.77;;
7013;SDS011;3547;50.774;12.918;2022-10-26T08:22:05;2.03;;;0.73;;
7013;SDS011;3547;50.774;12.918;2022-10-26T08:24:31;1.60;;;0.83;;
7013;SDS011;3547;50.774;12.918;2022-10-26T08:26:58;1.90;;;1.03;;
7013;SDS011;3547;50.774;12.918;2022-10-26T08:29:24;2.38;;;0.82;;
7013;SDS011;3547;50.774;12.918;2022-10-26T08:31:50;1.35;;;0.77;;
7013;SDS011;3547;50.774;12.918;2022-10-26T08:34:17;0.82;;;0.68;;
7013;SDS011;3547;50.774;12.918;2022-10-26T08:36:43;0.60;;;0.60;;
7013;SDS011;3547;50.774;12.918;2022-10-26T08:39:09;3.67;;;1.00;;
7013;SDS011;3547;50.774;12.918;2022-10-26T08:41:36;2.00;;;0.80;;
7013;SDS011;3547;50.774;12.918;2022-10-26T08:44:14;2.80;;;0.80;;
7013;SDS011;3547;50.774;12.918;2022-10-26T08:46:50;1.88;;;0.65;;
7013;SDS011;3547;50.774;12.918;2022-10-26T08:49:29;2.10;;;0.82;;
7013;SDS011;3547;50.774;12.918;2022-10-26T08:52:03;4.40;;;0.63;;
7013;SDS011;3547;50.774;12.918;2022-10-26T08:54:37;0.90;;;0.80;;
7013;SDS011;3547;50.774;12.918;2022-10-26T08:57:40;1.95;;;0.63;;
7013;SDS011;3547;50.774;12.918;2022-10-26T09:00:11;0.38;;;0.35;;
7013;SDS011;3547;50.774;12.918;2022-10-26T09:02:51;2.20;;;0.75;;
7013;SDS011;3547;50.774;12.918;2022-10-26T09:05:22;0.60;;;0.60;;
7013;SDS011;3547;50.774;12.918;2022-10-26T09:08:06;3.28;;;0.77;;
7013;SDS011;3547;50.774;12.918;2022-10-26T09:10:52;3.55;;;0.90;;
7013;SDS011;3547;50.774;12.918;2022-10-26T09:16:25;0.88;;;0.70;;
7013;SDS011;3547;50.774;12.918;2022-10-26T09:19:27;3.90;;;0.80;;
7013;SDS011;3547;50.774;12.918;2022-10-26T09:25:04;4.30;;;1.13;;
7013;SDS011;3547;50.774;12.918;2022-10-26T09:27:46;1.08;;;0.80;;
7013;SDS011;3547;50.774;12.918;2022-10-26T09:30:16;2.35;;;0.70;;
7013;SDS011;3547;50.774;12.918;2022-10-26T09:32:49;1.75;;;0.85;;
7013;SDS011;3547;50.774;12.918;2022-10-26T09:35:23;2.30;;;0.98;;
7013;SDS011;3547;50.774;12.918;2022-10-26T09:40:33;8.52;;;1.33;;
7013;SDS011;3547;50.774;12.918;2022-10-26T09:43:11;6.20;;;0.60;;
7013;SDS011;3547;50.774;12.918;2022-10-26T09:45:43;1.15;;;0.70;;
7013;SDS011;3547;50.774;12.918;2022-10-26T09:48:15;1.02;;;0.90;;
7013;SDS011;3547;50.774;12.918;2022-10-26T09:50:55;1.30;;;0.82;;
7013;SDS011;3547;50.774;12.918;2022-10-26T09:53:24;3.67;;;0.70;;
7013;SDS011;3547;50.774;12.918;2022-10-26T09:55:54;2.92;;;1.42;;
7013;SDS011;3547;50.774;12.918;2022-10-26T09:58:27;1.30;;;0.85;;
7013;SDS011;3547;50.774;12.918;2022-10-26T10:00:56;1.30;;;1.00;;
7013;SDS011;3547;50.774;12.918;2022-10-26T10:03:26;3.17;;;0.93;;
7013;SDS011;3547;50.774;12.918;2022-10-26T10:08:41;4.53;;;0.82;;
7013;SDS011;3547;50.774;12.918;2022-10-26T10:11:09;4.20;;;1.20;;
7013;SDS011;3547;50.774;12.918;2022-10-26T10:13:40;1.08;;;0.98;;
7013;SDS011;3547;50.774;12.918;2022-10-26T10:16:13;3.00;;;0.82;;
7013;SDS011;3547;50.774;12.918;2022-10-26T10:18:59;3.75;;;0.75;;
7013;SDS011;3547;50.774;12.918;2022-10-26T10:22:00;5.18;;;0.93;;
7013;SDS011;3547;50.774;12.918;2022-10-26T10:24:29;2.08;;;1.23;;
7013;SDS011;3547;50.774;12.918;2022-10-26T10:27:00;2.03;;;0.73;;
7013;SDS011;3547;50.774;12.918;2022-10-26T10:29:39;2.03;;;1.20;;
7013;SDS011;3547;50.774;12.918;2022-10-26T10:32:27;2.38;;;0.80;;
7013;SDS011;3547;50.774;12.918;2022-10-26T10:34:58;5.13;;;0.85;;
7013;SDS011;3547;50.774;12.918;2022-10-26T10:42:25;3.83;;;1.20;;
7013;SDS011;3547;50.774;12.918;2022-10-26T10:44:55;1.98;;;1.05;;
7013;SDS011;3547;50.774;12.918;2022-10-26T10:47:23;1.00;;;0.90;;
7013;SDS011;3547;50.774;12.918;2022-10-26T10:50:00;1.48;;;0.85;;
7013;SDS011;3547;50.774;12.918;2022-10-26T10:52:46;7.78;;;0.73;;
7013;SDS011;3547;50.774;12.918;2022-10-26T11:00:08;2.58;;;0.77;;
7013;SDS011;3547;50.774;12.918;2022-10-26T11:05:45;0.68;;;0.68;;
7013;SDS011;3547;50.774;12.918;2022-10-26T11:11:22;1.30;;;0.90;;
7013;SDS011;3547;50.774;12.918;2022-10-26T11:16:23;1.00;;;0.88;;
7013;SDS011;3547;50.774;12.918;2022-10-26T11:18:56;4.22;;;1.02;;
7013;SDS011;3547;50.774;12.918;2022-10-26T11:21:29;0.70;;;0.70;;
7013;SDS011;3547;50.774;12.918;2022-10-26T11:24:03;3.80;;;0.90;;
7013;SDS011;3547;50.774;12.918;2022-10-26T11:27:03;0.75;;;0.50;;
7013;SDS011;3547;50.774;12.918;2022-10-26T11:30:00;1.27;;;0.82;;
7013;SDS011;3547;50.774;12.918;2022-10-26T11:32:29;2.05;;;0.75;;
7013;SDS011;3547;50.774;12.918;2022-10-26T11:37:36;0.57;;;0.57;;
7013;SDS011;3547;50.774;12.918;2022-10-26T11:42:44;4.75;;;1.10;;
7013;SDS011;3547;50.774;12.918;2022-10-26T11:45:22;0.80;;;0.80;;
7013;SDS011;3547;50.774;12.918;2022-10-26T11:48:01;1.70;;;1.10;;
7013;SDS011;3547;50.774;12.918;2022-10-26T11:50:35;2.38;;;0.98;;
7013;SDS011;3547;50.774;12.918;2022-10-26T11:55:46;3.58;;;1.00;;
7013;SDS011;3547;50.774;12.918;2022-10-26T11:58:23;2.28;;;1.10;;
7013;SDS011;3547;50.774;12.918;2022-10-26T12:00:57;1.63;;;1.30;;
7013;SDS011;3547;50.774;12.918;2022-10-26T12:03:31;2.13;;;1.30;;
7013;SDS011;3547;50.774;12.918;2022-10-26T12:06:01;0.82;;;0.80;;
7013;SDS011;3547;50.774;12.918;2022-10-26T12:08:40;1.20;;;1.10;;
7013;SDS011;3547;50.774;12.918;2022-10-26T12:14:23;2.42;;;0.93;;
7013;SDS011;3547;50.774;12.918;2022-10-26T12:17:20;1.80;;;1.02;;
7013;SDS011;3547;50.774;12.918;2022-10-26T12:22:54;2.40;;;1.55;;
7013;SDS011;3547;50.774;12.918;2022-10-26T12:25:21;3.97;;;1.50;;
7013;SDS011;3547;50.774;12.918;2022-10-26T12:27:52;1.40;;;1.08;;
7013;SDS011;3547;50.774;12.918;2022-10-26T12:43:45;0.70;;;0.70;;
7013;SDS011;3547;50.774;12.918;2022-10-26T12:48:42;0.70;;;0.70;;
7013;SDS011;3547;50.774;12.918;2022-10-26T12:51:42;1.98;;;0.75;;
7013;SDS011;3547;50.774;12.918;2022-10-26T12:57:15;3.95;;;1.35;;
7013;SDS011;3547;50.774;12.918;2022-10-26T13:08:17;0.82;;;0.80;;
7013;SDS011;3547;50.774;12.918;2022-10-26T13:10:58;0.47;;;0.47;;
7013;SDS011;3547;50.774;12.918;2022-10-26T13:13:51;2.88;;;0.60;;
7013;SDS011;3547;50.774;12.918;2022-10-26T13:16:23;0.80;;;0.80;;
7013;SDS011;3547;50.774;12.918;2022-10-26T13:18:51;1.20;;;0.63;;
7013;SDS011;3547;50.774;12.918;2022-10-26T13:21:18;0.47;;;0.47;;
7013;SDS011;3547;50.774;12.918;2022-10-26T13:23:46;2.25;;;0.80;;
7013;SDS011;3547;50.774;12.918;2022-10-26T13:26:22;3.05;;;0.63;;
7013;SDS011;3547;50.774;12.918;2022-10-26T13:28:51;1.00;;;0.90;;
7013;SDS011;3547;50.774;12.918;2022-10-26T13:33:57;0.50;;;0.50;;
7013;SDS011;3547;50.774;12.918;2022-10-26T13:42:05;1.48;;;0.70;;
7013;SDS011;3547;50.774;12.918;2022-10-26T13:47:28;3.85;;;1.20;;
7013;SDS011;3547;50.774;12.918;2022-10-26T13:50:03;1.38;;;0.90;;
7013;SDS011;3547;50.774;12.918;2022-10-26T13:52:34;1.67;;;1.10;;
7013;SDS011;3547;50.774;12.918;2022-10-26T13:55:08;1.08;;;0.77;;
7013;SDS011;3547;50.774;12.918;2022-10-26T13:57:46;3.53;;;0.88;;
7013;SDS011;3547;50.774;12.918;2022-10-26T14:00:33;1.40;;;0.90;;
7013;SDS011;3547;50.774;12.918;2022-10-26T14:03:10;0.95;;;0.80;;
7013;SDS011;3547;50.774;12.918;2022-10-26T14:05:45;2.05;;;1.20;;
7013;SDS011;3547;50.774;12.918;2022-10-26T14:08:15;2.83;;;1.02;;
7013;SDS011;3547;50.774;12.918;2022-10-26T14:10:52;3.20;;;1.15;;
7013;SDS011;3547;50.774;12.918;2022-10-26T14:13:22;1.95;;;1.17;;
7013;SDS011;3547;50.774;12.918;2022-10-26T14:15:53;1.48;;;1.20;;
7013;SDS011;3547;50.774;12.918;2022-10-26T14:18:24;0.90;;;0.90;;
7013;SDS011;3547;50.774;12.918;2022-10-26T14:21:02;1.98;;;1.10;;
7013;SDS011;3547;50.774;12.918;2022-10-26T14:23:43;2.38;;;1.00;;
7013;SDS011;3547;50.774;12.918;2022-10-26T14:26:57;3.90;;;1.10;;
7013;SDS011;3547;50.774;12.918;2022-10-26T14:29:21;11.25;;;1.50;;
7013;SDS011;3547;50.774;12.918;2022-10-26T14:31:48;6.82;;;1.27;;
7013;SDS011;3547;50.774;12.918;2022-10-26T14:34:16;3.90;;;1.13;;
7013;SDS011;3547;50.774;12.918;2022-10-26T14:36:57;4.38;;;1.30;;
7013;SDS011;3547;50.774;12.918;2022-10-26T14:39:36;3.92;;;1.52;;
7013;SDS011;3547;50.774;12.918;2022-10-26T14:42:14;1.77;;;0.95;;
7013;SDS011;3547;50.774;12.918;2022-10-26T14:44:42;3.55;;;1.10;;
7013;SDS011;3547;50.774;12.918;2022-10-26T14:47:12;3.30;;;1.20;;
7013;SDS011;3547;50.774;12.918;2022-10-26T14:49:50;3.17;;;1.20;;
7013;SDS011;3547;50.774;12.918;2022-10-26T14:52:29;4.07;;;1.70;;
7013;SDS011;3547;50.774;12.918;2022-10-26T14:55:02;7.07;;;1.52;;
7013;SDS011;3547;50.774;12.918;2022-10-26T14:57:36;5.85;;;1.67;;
7013;SDS011;3547;50.774;12.918;2022-10-26T15:02:49;3.25;;;1.77;;
7013;SDS011;3547;50.774;12.918;2022-10-26T15:07:49;2.78;;;1.60;;
7013;SDS011;3547;50.774;12.918;2022-10-26T15:13:10;2.22;;;1.27;;
7013;SDS011;3547;50.774;12.918;2022-10-26T15:15:46;1.85;;;1.40;;
7013;SDS011;3547;50.774;12.918;2022-10-26T15:21:37;6.00;;;1.40;;
7013;SDS011;3547;50.774;12.918;2022-10-26T15:24:26;7.05;;;1.95;;
7013;SDS011;3547;50.774;12.918;2022-10-26T15:26:57;7.72;;;1.98;;
7013;SDS011;3547;50.774;12.918;2022-10-26T15:29:41;5.53;;;1.95;;
7013;SDS011;3547;50.774;12.918;2022-10-26T15:35:14;2.80;;;1.45;;
7013;SDS011;3547;50.774;12.918;2022-10-26T15:37:40;2.10;;;1.60;;
7013;SDS011;3547;50.774;12.918;2022-10-26T15:40:07;3.90;;;2.13;;
7013;SDS011;3547;50.774;12.918;2022-10-26T15:42:37;3.22;;;2.00;;
7013;SDS011;3547;50.774;12.918;2022-10-26T15:47:46;7.55;;;3.40;;
7013;SDS011;3547;50.774;12.918;2022-10-26T15:50:26;4.07;;;3.03;;
7013;SDS011;3547;50.774;12.918;2022-10-26T15:53:00;4.13;;;2.30;;
7013;SDS011;3547;50.774;12.918;2022-10-26T15:55:30;4.88;;;3.13;;
7013;SDS011;3547;50.774;12.918;2022-10-26T15:57:56;7.28;;;3.17;;
7013;SDS011;3547;50.774;12.918;2022-10-26T16:00:23;4.15;;;2.80;;
7013;SDS011;3547;50.774;12.918;2022-10-26T16:02:49;4.60;;;3.58;;
7013;SDS011;3547;50.774;12.918;2022-10-26T16:05:15;3.50;;;2.80;;
7013;SDS011;3547;50.774;12.918;2022-10-26T16:07:42;3.17;;;2.88;;
7013;SDS011;3547;50.774;12.918;2022-10-26T16:10:11;4.65;;;2.97;;
7013;SDS011;3547;50.774;12.918;2022-10-26T16:12:40;6.15;;;3.22;;
7013;SDS011;3547;50.774;12.918;2022-10-26T16:15:07;3.92;;;2.97;;
7013;SDS011;3547;50.774;12.918;2022-10-26T16:17:39;3.80;;;3.38;;
7013;SDS011;3547;50.774;12.918;2022-10-26T16:20:06;4.82;;;4.35;;
7013;SDS011;3547;50.774;12.918;2022-10-26T16:22:36;4.53;;;3.42;;
7013;SDS011;3547;50.774;12.918;2022-10-26T16:25:05;3.80;;;3.30;;
7013;SDS011;3547;50.774;12.918;2022-10-26T16:27:31;3.25;;;2.42;;
7013;SDS011;3547;50.774;12.918;2022-10-26T16:29:57;3.75;;;2.30;;
7013;SDS011;3547;50.774;12.918;2022-10-26T16:32:24;5.68;;;2.83;;
7013;SDS011;3547;50.774;12.918;2022-10-26T16:34:50;5.68;;;3.10;;
7013;SDS011;3547;50.774;12.918;2022-10-26T16:37:16;10.15;;;3.13;;
7013;SDS011;3547;50.774;12.918;2022-10-26T16:39:42;3.85;;;2.97;;
7013;SDS011;3547;50.774;12.918;2022-10-26T16:42:08;5.65;;;3.90;;
7013;SDS011;3547;50.774;12.918;2022-10-26T16:44:34;6.22;;;4.22;;
7013;SDS011;3547;50.774;12.918;2022-10-26T16:47:02;7.10;;;3.67;;
7013;SDS011;3547;50.774;12.918;2022-10-26T16:49:28;5.63;;;3.38;;
7013;SDS011;3547;50.774;12.918;2022-10-26T16:51:54;6.65;;;3.65;;
7013;SDS011;3547;50.774;12.918;2022-10-26T16:54:21;5.32;;;4.03;;
7013;SDS011;3547;50.774;12.918;2022-10-26T16:56:48;9.07;;;4.57;;
7013;SDS011;3547;50.774;12.918;2022-10-26T16:59:14;5.32;;;4.00;;
7013;SDS011;3547;50.774;12.918;2022-10-26T17:01:40;6.97;;;4.15;;
7013;SDS011;3547;50.774;12.918;2022-10-26T17:04:08;6.03;;;3.47;;
7013;SDS011;3547;50.774;12.918;2022-10-26T17:06:34;4.15;;;3.58;;
7013;SDS011;3547;50.774;12.918;2022-10-26T17:09:00;4.60;;;3.53;;
7013;SDS011;3547;50.774;12.918;2022-10-26T17:11:26;6.10;;;3.60;;
7013;SDS011;3547;50.774;12.918;2022-10-26T17:13:53;5.72;;;3.30;;
7013;SDS011;3547;50.774;12.918;2022-10-26T17:16:20;3.63;;;2.53;;
7013;SDS011;3547;50.774;12.918;2022-10-26T17:18:47;3.90;;;2.63;;
7013;SDS011;3547;50.774;12.918;2022-10-26T17:21:14;2.92;;;2.35;;
7013;SDS011;3547;50.774;12.918;2022-10-26T17:23:41;3.70;;;2.58;;
7013;SDS011;3547;50.774;12.918;2022-10-26T17:26:08;4.05;;;2.50;;
7013;SDS011;3547;50.774;12.918;2022-10-26T17:28:36;3.13;;;2.47;;
7013;SDS011;3547;50.774;12.918;2022-10-26T17:31:07;2.45;;;2.25;;
7013;SDS011;3547;50.774;12.918;2022-10-26T17:33:35;5.57;;;2.72;;
7013;SDS011;3547;50.774;12.918;2022-10-26T17:36:03;5.82;;;3.25;;
7013;SDS011;3547;50.774;12.918;2022-10-26T17:38:31;8.23;;;4.57;;
7013;SDS011;3547;50.774;12.918;2022-10-26T17:41:03;10.55;;;5.68;;
7013;SDS011;3547;50.774;12.918;2022-10-26T17:43:31;7.07;;;5.53;;
7013;SDS011;3547;50.774;12.918;2022-10-26T17:45:58;7.93;;;6.07;;
7013;SDS011;3547;50.774;12.918;2022-10-26T17:48:29;5.87;;;5.17;;
7013;SDS011;3547;50.774;12.918;2022-10-26T17:51:00;6.30;;;4.83;;
7013;SDS011;3547;50.774;12.918;2022-10-26T17:53:27;9.52;;;4.63;;
7013;SDS011;3547;50.774;12.918;2022-10-26T17:56:04;5.38;;;3.95;;
7013;SDS011;3547;50.774;12.918;2022-10-26T17:58:32;5.85;;;4.75;;
7013;SDS011;3547;50.774;12.918;2022-10-26T18:01:00;7.23;;;4.23;;
7013;SDS011;3547;50.774;12.918;2022-10-26T18:03:30;7.50;;;4.40;;
7013;SDS011;3547;50.774;12.918;2022-10-26T18:05:57;8.00;;;4.90;;
7013;SDS011;3547;50.774;12.918;2022-10-26T18:08:23;7.53;;;5.40;;
7013;SDS011;3547;50.774;12.918;2022-10-26T18:10:51;6.50;;;5.70;;
7013;SDS011;3547;50.774;12.918;2022-10-26T18:13:19;12.37;;;6.93;;
7013;SDS011;3547;50.774;12.918;2022-10-26T18:15:46;6.53;;;5.93;;
7013;SDS011;3547;50.774;12.918;2022-10-26T18:18:12;6.67;;;5.03;;
7013;SDS011;3547;50.774;12.918;2022-10-26T18:20:38;4.43;;;4.03;;
7013;SDS011;3547;50.774;12.918;2022-10-26T18:23:04;4.10;;;3.50;;
7013;SDS011;3547;50.774;12.918;2022-10-26T18:25:31;5.93;;;3.00;;
7013;SDS011;3547;50.774;12.918;2022-10-26T18:27:58;7.10;;;3.20;;
7013;SDS011;3547;50.774;12.918;2022-10-26T18:30:24;5.30;;;3.20;;
7013;SDS011;3547;50.774;12.918;2022-10-26T18:33:00;3.43;;;2.47;;
7013;SDS011;3547;50.774;12.918;2022-10-26T18:35:34;3.90;;;2.40;;
7013;SDS011;3547;50.774;12.918;2022-10-26T18:38:00;6.23;;;2.27;;
7013;SDS011;3547;50.774;12.918;2022-10-26T18:40:26;4.13;;;2.23;;
7013;SDS011;3547;50.774;12.918;2022-10-26T18:42:53;4.77;;;2.60;;
7013;SDS011;3547;50.774;12.918;2022-10-26T18:45:21;3.90;;;2.47;;
7013;SDS011;3547;50.774;12.918;2022-10-26T18:48:09;4.23;;;3.00;;
7013;SDS011;3547;50.774;12.918;2022-10-26T18:50:38;6.30;;;2.90;;
7013;SDS011;3547;50.774;12.918;2022-10-26T18:56:10;3.70;;;3.03;;
7013;SDS011;3547;50.774;12.918;2022-10-26T18:58:48;3.13;;;2.83;;
7013;SDS011;3547;50.774;12.918;2022-10-26T19:01:29;4.77;;;3.33;;
7013;SDS011;3547;50.774;12.918;2022-10-26T19:04:05;5.47;;;3.20;;
7013;SDS011;3547;50.774;12.918;2022-10-26T19:06:33;6.03;;;3.30;;
7013;SDS011;3547;50.774;12.918;2022-10-26T19:09:12;5.40;;;3.50;;
7013;SDS011;3547;50.774;12.918;2022-10-26T19:11:43;3.87;;;3.03;;
7013;SDS011;3547;50.774;12.918;2022-10-26T19:14:10;3.53;;;3.10;;
7013;SDS011;3547;50.774;12.918;2022-10-26T19:16:37;5.27;;;3.70;;
7013;SDS011;3547;50.774;12.918;2022-10-26T19:19:06;4.00;;;3.00;;
7013;SDS011;3547;50.774;12.918;2022-10-26T19:21:38;3.10;;;2.70;;
7013;SDS011;3547;50.774;12.918;2022-10-26T19:24:07;5.90;;;2.53;;
7013;SDS011;3547;50.774;12.918;2022-10-26T19:26:40;3.33;;;2.90;;
7013;SDS011;3547;50.774;12.918;2022-10-26T19:29:07;5.40;;;2.83;;
7013;SDS011;3547;50.774;12.918;2022-10-26T19:31:36;6.03;;;2.93;;
7013;SDS011;3547;50.774;12.918;2022-10-26T19:34:03;2.70;;;2.50;;
7013;SDS011;3547;50.774;12.918;2022-10-26T19:36:30;4.17;;;2.97;;
7013;SDS011;3547;50.774;12.918;2022-10-26T19:39:08;4.30;;;3.00;;
7013;SDS011;3547;50.774;12.918;2022-10-26T19:41:37;3.60;;;2.47;;
7013;SDS011;3547;50.774;12.918;2022-10-26T19:44:10;3.27;;;2.43;;
7013;SDS011;3547;50.774;12.918;2022-10-26T19:49:59;2.67;;;2.40;;
7013;SDS011;3547;50.774;12.918;2022-10-26T19:52:25;3.33;;;2.43;;